map of LEA home
LEA - Airport
Location
City:  Learmonth, Western Australia, Australia
Near (Alt.):Exmouth
ICAO:YPLM
IATA:LEA

Details
Type:Airport (Aerodrome, Airfield)
Use:Public/Civil, Military, International (customs port of entry)
Latitude:2214'08"S (-22.235555)
Longitude:11405'19"E (114.088611)
Datum:WGS 1984
Elevation:19 ft (6 m)
Variation:0.31E (WMM2015v2 magnetic declination)
-0.02 annual change
Runways:1
Longest:9997 × 148 ft (3047 × 45 m), paved

Time
Time Zone:UTC+8
Local Time:

Weather
METAR:YPLM 041400Z AUTO 22017KT 9999 // NCD 27/18 Q1005 RF00.0/000.0
TAF:YPLM 041022Z 0412/0512 22022KT CAVOK
BECMG 0412/0414 21014KT CAVOK
FM050800 23020KT CAVOK

Related Locations
Nearby:
Farthest:NGD: 12170 mi / 19586 km
Anegada (The Settlement) [Capt. Auguste George Airport], Anegada, VG

Find:

   beyond  
but within

Other Information
Maps:
NOTAMs:
Links:
Sources:

  
  • flag of Australia
  • flag of Western Australia
  

Sectional Chart

Flight Planning
at skyvector.com

Satellite Image

Google Maps Satellite view

 

Copyright © 2004-2019 Karl L. Swartz. All rights reserved.
The Great Circle Mapper name and logo are trademarks of the Great Circle Mapper.
All other trademarks mentioned herein belong to their respective owners.
Please see credits for attibutions and further copyright information.

  Follow gcmap on Facebook Follow gcmap on Twitter GCmap on LinkedIn

hCard Microformat

Geo Microformat